createdAt,value
2023-05-15T00:00:34.450Z,91.81
2023-05-15T00:03:02.697Z,91.65
2023-05-15T00:05:30.759Z,91.60
2023-05-15T00:07:58.520Z,91.62
2023-05-15T00:10:26.345Z,91.49
2023-05-15T00:12:55.330Z,91.23
2023-05-15T00:15:23.657Z,91.35
2023-05-15T00:17:51.835Z,90.60
2023-05-15T00:20:20.519Z,90.92
2023-05-15T00:22:48.363Z,90.95
2023-05-15T00:25:16.368Z,90.53
2023-05-15T00:27:44.397Z,90.02
2023-05-15T00:30:13.496Z,89.48
2023-05-15T00:32:41.385Z,89.06
2023-05-15T00:35:09.438Z,88.87
2023-05-15T00:37:37.397Z,89.36
2023-05-15T00:40:06.544Z,90.04
2023-05-15T00:42:35.485Z,90.22
2023-05-15T00:45:04.009Z,89.60
2023-05-15T00:47:32.229Z,89.96
2023-05-15T00:50:00.235Z,90.11
2023-05-15T00:52:28.043Z,91.29
2023-05-15T00:54:55.728Z,91.01
2023-05-15T00:57:24.178Z,91.40
2023-05-15T00:59:52.240Z,91.82
2023-05-15T01:02:20.113Z,91.44
2023-05-15T01:04:49.481Z,92.50
2023-05-15T01:07:18.102Z,92.65
2023-05-15T01:09:45.868Z,92.31
2023-05-15T01:12:15.446Z,91.82
2023-05-15T01:14:43.350Z,92.03
2023-05-15T01:17:11.108Z,92.68
2023-05-15T01:19:40.204Z,92.46
2023-05-15T01:22:34.990Z,92.50
2023-05-15T01:25:14.085Z,92.93
2023-05-15T01:27:51.409Z,93.41
2023-05-15T01:30:34.247Z,93.38
2023-05-15T01:33:04.032Z,94.13
2023-05-15T01:36:16.472Z,94.22
2023-05-15T01:39:00.646Z,94.23
2023-05-15T01:41:35.367Z,94.27
2023-05-15T01:44:09.063Z,94.72
2023-05-15T01:46:39.419Z,95.13
2023-05-15T01:49:07.918Z,95.27
2023-05-15T01:51:35.909Z,95.88
2023-05-15T01:54:03.767Z,95.89
2023-05-15T01:56:31.549Z,96.51
2023-05-15T01:59:00.231Z,96.21
2023-05-15T02:01:30.079Z,96.70
2023-05-15T02:03:57.849Z,97.37
2023-05-15T02:06:25.592Z,98.13
2023-05-15T02:08:54.565Z,97.59
2023-05-15T02:11:22.108Z,97.87
2023-05-15T02:13:49.751Z,98.61
2023-05-15T02:16:17.421Z,98.56
2023-05-15T02:18:45.627Z,99.24
2023-05-15T02:21:15.736Z,98.81
2023-05-15T02:23:43.776Z,98.82
2023-05-15T02:26:49.607Z,98.88
2023-05-15T02:29:50.083Z,99.13
2023-05-15T02:32:39.336Z,99.49
2023-05-15T02:35:26.306Z,99.43
2023-05-15T02:37:55.380Z,99.64
2023-05-15T02:40:23.887Z,99.64
2023-05-15T02:42:52.606Z,99.79
2023-05-15T02:45:21.596Z,99.79
2023-05-15T02:47:51.340Z,99.89
2023-05-15T02:50:19.418Z,100.00
2023-05-15T02:52:47.112Z,100.00
2023-05-15T02:55:15.175Z,100.00
2023-05-15T02:57:42.766Z,100.00
2023-05-15T03:00:11.742Z,100.00
2023-05-15T03:02:39.532Z,100.00
2023-05-15T03:05:08.402Z,100.00
2023-05-15T03:07:36.817Z,100.00
2023-05-15T03:10:05.348Z,100.00
2023-05-15T03:12:33.647Z,99.99
2023-05-15T03:15:01.557Z,99.96
2023-05-15T03:17:29.828Z,99.41
2023-05-15T03:19:57.997Z,99.32
2023-05-15T03:22:25.803Z,99.57
2023-05-15T03:24:53.775Z,100.00
2023-05-15T03:27:21.429Z,99.31
2023-05-15T03:29:50.766Z,98.19
2023-05-15T03:32:18.460Z,95.54
2023-05-15T03:34:46.289Z,92.12
2023-05-15T03:37:13.914Z,88.81
2023-05-15T03:39:41.556Z,85.67
2023-05-15T03:42:09.269Z,82.77
2023-05-15T03:44:37.232Z,80.18
2023-05-15T03:47:05.159Z,76.50
2023-05-15T03:49:33.517Z,73.24
2023-05-15T03:52:01.191Z,70.88
2023-05-15T03:54:29.250Z,68.82
2023-05-15T03:56:57.305Z,66.43
2023-05-15T03:59:24.922Z,63.57
2023-05-15T04:02:03.560Z,63.18
2023-05-15T04:04:40.081Z,62.48
2023-05-15T04:07:07.798Z,62.84
2023-05-15T04:09:35.165Z,62.36
2023-05-15T04:12:02.786Z,59.63
2023-05-15T04:14:30.413Z,56.71
2023-05-15T04:16:57.867Z,56.03
2023-05-15T04:19:25.491Z,55.66
2023-05-15T04:21:53.292Z,54.63
2023-05-15T04:24:20.830Z,52.78
2023-05-15T04:26:48.380Z,51.32
2023-05-15T04:29:16.024Z,50.56
2023-05-15T04:31:43.437Z,49.11
2023-05-15T04:34:11.107Z,48.53
2023-05-15T04:36:40.596Z,48.39
2023-05-15T04:39:08.291Z,48.39
2023-05-15T04:41:35.883Z,48.16
2023-05-15T04:44:03.569Z,47.85
2023-05-15T04:46:34.455Z,47.99
2023-05-15T04:49:02.071Z,48.44
2023-05-15T04:51:29.640Z,47.10
2023-05-15T04:53:57.112Z,46.09
2023-05-15T04:56:24.473Z,45.59
2023-05-15T04:58:51.821Z,44.38
2023-05-15T05:01:19.196Z,43.57
2023-05-15T05:03:46.882Z,42.24
2023-05-15T05:06:14.318Z,41.93
2023-05-15T05:08:42.146Z,41.33
2023-05-15T05:11:09.524Z,40.85
2023-05-15T05:13:36.970Z,40.21
2023-05-15T05:16:05.022Z,39.57
2023-05-15T05:18:32.524Z,39.79
2023-05-15T05:21:01.260Z,39.91
2023-05-15T05:23:29.864Z,39.64
2023-05-15T05:25:57.243Z,38.25
2023-05-15T05:28:24.615Z,37.71
2023-05-15T05:30:52.208Z,36.64
2023-05-15T05:33:19.771Z,36.46
2023-05-15T05:35:47.249Z,35.83
2023-05-15T05:38:15.191Z,34.88
2023-05-15T05:40:42.594Z,34.69
2023-05-15T05:43:10.282Z,34.33
2023-05-15T05:45:37.669Z,34.10
2023-05-15T05:48:05.224Z,33.72
2023-05-15T05:50:33.092Z,33.38
2023-05-15T05:53:00.525Z,32.70
2023-05-15T05:55:27.992Z,32.40
2023-05-15T05:57:55.528Z,32.61
2023-05-15T06:00:24.638Z,32.85
2023-05-15T06:02:57.270Z,32.43
2023-05-15T06:05:25.972Z,32.14
2023-05-15T06:07:54.453Z,32.03
2023-05-15T06:10:22.362Z,31.73
2023-05-15T06:12:50.174Z,31.16
2023-05-15T06:15:17.529Z,30.96
2023-05-15T06:17:45.320Z,30.60
2023-05-15T06:20:12.955Z,29.87
2023-05-15T06:22:40.752Z,29.64
2023-05-15T06:25:13.337Z,29.76
2023-05-15T06:27:41.207Z,29.80
2023-05-15T06:30:09.597Z,30.26
2023-05-15T06:32:37.648Z,30.15
2023-05-15T06:35:06.046Z,30.20
2023-05-15T06:37:33.535Z,30.61
2023-05-15T06:40:01.074Z,30.07
2023-05-15T06:42:28.950Z,29.19
2023-05-15T06:44:57.510Z,28.14
2023-05-15T06:47:25.273Z,27.26
2023-05-15T06:49:53.999Z,26.64
2023-05-15T06:52:21.427Z,26.66
2023-05-15T06:54:48.865Z,27.17
2023-05-15T06:57:16.416Z,28.17
2023-05-15T06:59:43.981Z,28.98
2023-05-15T07:02:11.328Z,29.27
2023-05-15T07:04:38.862Z,27.44
2023-05-15T07:07:06.873Z,26.65
2023-05-15T07:09:35.129Z,26.37
2023-05-15T07:12:03.584Z,25.83
2023-05-15T07:14:31.316Z,26.19
2023-05-15T07:16:58.709Z,26.40
2023-05-15T07:19:26.312Z,27.31
2023-05-15T07:21:53.707Z,26.93
2023-05-15T07:24:21.025Z,26.88
2023-05-15T07:26:58.056Z,27.15
2023-05-15T07:29:26.729Z,26.16
2023-05-15T07:31:54.155Z,26.34
2023-05-15T07:34:21.453Z,26.81
2023-05-15T07:36:48.985Z,26.98
2023-05-15T07:39:16.784Z,26.95
2023-05-15T07:41:46.669Z,26.37
2023-05-15T07:44:14.036Z,26.75
2023-05-15T07:46:41.481Z,26.93
2023-05-15T07:49:10.153Z,25.91
2023-05-15T07:51:37.542Z,25.89
2023-05-15T07:54:05.032Z,25.66
2023-05-15T07:56:32.805Z,24.75
2023-05-15T07:59:00.271Z,24.44
2023-05-15T08:01:29.086Z,25.54
2023-05-15T08:03:58.176Z,25.80
2023-05-15T08:06:25.722Z,24.86
2023-05-15T08:08:53.144Z,25.01
2023-05-15T08:11:21.633Z,24.93
2023-05-15T08:13:49.133Z,24.58
2023-05-15T08:16:16.699Z,25.07
2023-05-15T08:18:44.108Z,24.64
2023-05-15T08:21:11.520Z,23.81
2023-05-15T08:23:38.930Z,23.17
2023-05-15T08:26:06.289Z,23.46
2023-05-15T08:28:33.865Z,23.46
2023-05-15T08:31:01.335Z,23.39
2023-05-15T08:33:29.328Z,24.04
2023-05-15T08:35:57.946Z,23.09
2023-05-15T08:38:25.384Z,22.61
2023-05-15T08:40:53.040Z,22.73
2023-05-15T08:43:20.915Z,22.44
2023-05-15T08:45:49.107Z,22.15
2023-05-15T08:48:20.077Z,22.62
2023-05-15T08:50:47.634Z,23.23
2023-05-15T08:53:15.301Z,23.53
2023-05-15T08:55:42.710Z,23.79
2023-05-15T08:58:10.099Z,24.23
2023-05-15T09:00:37.598Z,24.68
2023-05-15T09:03:05.386Z,22.82
2023-05-15T09:05:33.983Z,22.65
2023-05-15T09:08:02.510Z,22.94
2023-05-15T09:10:30.253Z,23.23
2023-05-15T09:12:57.927Z,23.04
2023-05-15T09:15:25.821Z,23.28
2023-05-15T09:17:53.401Z,23.18
2023-05-15T09:20:31.779Z,23.60
2023-05-15T09:23:00.142Z,23.32
2023-05-15T09:25:42.386Z,23.72
2023-05-15T09:28:11.460Z,24.37
2023-05-15T09:30:39.354Z,23.43
2023-05-15T09:33:06.862Z,23.45
2023-05-15T09:35:38.297Z,23.02
2023-05-15T09:38:10.048Z,22.76
2023-05-15T09:40:38.787Z,22.63
2023-05-15T09:43:06.221Z,22.78
2023-05-15T09:45:34.220Z,23.14
2023-05-15T09:48:04.883Z,22.83
2023-05-15T09:50:37.544Z,23.09
2023-05-15T09:53:05.222Z,23.57
2023-05-15T09:55:33.852Z,23.81
2023-05-15T09:58:06.274Z,22.98
2023-05-15T10:00:34.953Z,23.35
2023-05-15T10:03:03.468Z,23.65
2023-05-15T10:05:42.545Z,23.37
2023-05-15T10:08:11.436Z,23.88
2023-05-15T10:10:39.353Z,23.60
2023-05-15T10:13:07.474Z,23.42
2023-05-15T10:15:35.308Z,23.18
2023-05-15T10:18:03.854Z,23.04
2023-05-15T10:20:39.820Z,23.20
2023-05-15T10:23:07.274Z,23.17
2023-05-15T10:25:45.222Z,22.96
2023-05-15T10:28:12.673Z,23.42
2023-05-15T10:30:40.649Z,23.11
2023-05-15T10:33:09.223Z,23.34
2023-05-15T10:35:38.997Z,22.63
2023-05-15T10:38:06.874Z,22.94
2023-05-15T10:40:38.562Z,22.58
2023-05-15T10:43:05.919Z,22.10
2023-05-15T10:45:33.865Z,22.25
2023-05-15T10:48:02.133Z,22.52
2023-05-15T10:50:30.279Z,22.63
2023-05-15T10:52:57.711Z,22.49
2023-05-15T10:55:25.114Z,22.15
2023-05-15T10:57:56.044Z,21.94
2023-05-15T11:00:23.933Z,22.62
2023-05-15T11:02:56.746Z,22.74
2023-05-15T11:05:25.582Z,23.20
2023-05-15T11:08:15.234Z,23.66
2023-05-15T11:10:42.887Z,23.60
2023-05-15T11:13:11.703Z,23.50
2023-05-15T11:15:46.585Z,23.24
2023-05-15T11:18:14.384Z,23.30
2023-05-15T11:20:51.741Z,23.46
2023-05-15T11:23:22.872Z,23.82
2023-05-15T11:25:54.795Z,24.06
2023-05-15T11:28:23.620Z,24.52
2023-05-15T11:30:52.254Z,23.24
2023-05-15T11:33:20.168Z,23.04
2023-05-15T11:35:47.811Z,22.98
2023-05-15T11:38:24.428Z,23.03
2023-05-15T11:40:55.493Z,22.83
2023-05-15T11:43:33.226Z,23.24
2023-05-15T11:46:04.642Z,23.40
2023-05-15T11:48:33.642Z,23.72
2023-05-15T11:51:01.559Z,23.62
2023-05-15T11:53:30.079Z,23.34
2023-05-15T11:55:57.579Z,22.41
2023-05-15T11:58:26.736Z,22.64
2023-05-15T12:00:54.436Z,22.35
2023-05-15T12:03:24.627Z,21.94
2023-05-15T12:05:59.544Z,21.64
2023-05-15T12:08:35.088Z,21.60
2023-05-15T12:11:03.286Z,21.59
2023-05-15T12:13:32.037Z,21.29
2023-05-15T12:16:00.973Z,22.12
2023-05-15T12:18:30.926Z,21.92
2023-05-15T12:20:58.504Z,21.45
2023-05-15T12:23:26.697Z,21.92
2023-05-15T12:25:58.264Z,21.97
2023-05-15T12:28:26.243Z,22.23
2023-05-15T12:30:54.042Z,21.90
2023-05-15T12:33:23.103Z,21.98
2023-05-15T12:35:54.954Z,22.59
2023-05-15T12:38:24.662Z,22.70
2023-05-15T12:40:55.251Z,22.39
2023-05-15T12:43:25.892Z,22.66
2023-05-15T12:45:54.302Z,22.40
2023-05-15T12:48:22.121Z,22.58
2023-05-15T12:50:49.937Z,22.28
2023-05-15T12:53:18.071Z,21.63
2023-05-15T12:55:46.615Z,22.57
2023-05-15T12:58:15.745Z,22.79
2023-05-15T13:00:45.713Z,23.25
2023-05-15T13:03:13.661Z,22.84
2023-05-15T13:05:45.167Z,22.64
2023-05-15T13:08:17.172Z,23.23
2023-05-15T13:10:45.199Z,23.42
2023-05-15T13:13:13.027Z,23.40
2023-05-15T13:15:43.144Z,23.96
2023-05-15T13:18:11.930Z,24.10
2023-05-15T13:20:41.456Z,23.83
2023-05-15T13:23:10.192Z,24.01
2023-05-15T13:25:37.703Z,24.03
2023-05-15T13:28:06.063Z,23.75
2023-05-15T13:30:34.240Z,23.79
2023-05-15T13:33:02.242Z,23.89
2023-05-15T13:35:29.929Z,24.01
2023-05-15T13:37:57.817Z,24.79
2023-05-15T13:40:25.832Z,24.61
2023-05-15T13:42:53.611Z,24.52
2023-05-15T13:45:20.988Z,24.63
2023-05-15T13:47:48.652Z,23.62
2023-05-15T13:50:16.362Z,24.11
2023-05-15T13:52:44.758Z,24.67
2023-05-15T13:55:12.324Z,24.91
2023-05-15T13:57:40.789Z,25.12
2023-05-15T14:00:12.821Z,25.27
2023-05-15T14:02:41.418Z,25.21
2023-05-15T14:05:12.741Z,25.56
2023-05-15T14:07:40.641Z,25.64
2023-05-15T14:10:08.514Z,25.89
2023-05-15T14:12:36.939Z,26.00
2023-05-15T14:15:04.981Z,26.05
2023-05-15T14:17:32.890Z,26.13
2023-05-15T14:20:00.618Z,26.29
2023-05-15T14:22:28.115Z,26.41
2023-05-15T14:24:55.480Z,26.61
2023-05-15T14:27:23.018Z,26.51
2023-05-15T14:29:51.137Z,26.30
2023-05-15T14:32:18.678Z,26.63
2023-05-15T14:34:46.452Z,26.80
2023-05-15T14:37:14.230Z,26.62
2023-05-15T14:39:42.059Z,26.51
2023-05-15T14:42:10.391Z,26.60
2023-05-15T14:44:38.108Z,26.77
2023-05-15T14:47:09.953Z,26.84
2023-05-15T14:49:37.748Z,26.24
2023-05-15T14:52:09.036Z,26.67
2023-05-15T14:54:37.449Z,26.12
2023-05-15T14:57:05.284Z,26.55
2023-05-15T14:59:33.066Z,26.43
2023-05-15T15:02:00.853Z,26.59
2023-05-15T15:04:30.186Z,26.90
2023-05-15T15:06:57.673Z,26.66
2023-05-15T15:09:26.955Z,26.75
2023-05-15T15:11:55.875Z,26.81
2023-05-15T15:14:23.513Z,26.90
2023-05-15T15:16:50.907Z,26.93
2023-05-15T15:19:20.124Z,26.98
2023-05-15T15:21:48.461Z,27.12
2023-05-15T15:24:17.372Z,27.49
2023-05-15T15:26:45.026Z,27.71
2023-05-15T15:29:12.463Z,27.73
2023-05-15T15:31:39.921Z,27.87
2023-05-15T15:34:08.782Z,27.74
2023-05-15T15:36:41.273Z,27.95
2023-05-15T15:39:11.256Z,28.03
2023-05-15T15:41:39.277Z,28.35
2023-05-15T15:44:06.997Z,27.86
2023-05-15T15:46:34.499Z,27.90
2023-05-15T15:49:03.919Z,28.07
2023-05-15T15:51:32.813Z,28.31
2023-05-15T15:54:00.204Z,28.21
2023-05-15T15:56:27.939Z,28.64
2023-05-15T15:58:55.290Z,28.81
2023-05-15T16:01:23.457Z,28.69
2023-05-15T16:03:51.197Z,28.64
2023-05-15T16:06:18.957Z,28.56
2023-05-15T16:08:46.923Z,28.69
2023-05-15T16:11:16.076Z,28.57
2023-05-15T16:13:44.837Z,28.12
2023-05-15T16:16:12.827Z,28.01
2023-05-15T16:18:40.740Z,28.31
2023-05-15T16:21:08.359Z,28.65
2023-05-15T16:23:36.465Z,29.11
2023-05-15T16:26:04.641Z,29.49
2023-05-15T16:28:32.361Z,29.52
2023-05-15T16:30:59.966Z,29.67
2023-05-15T16:33:28.494Z,29.93
2023-05-15T16:35:56.489Z,30.46
2023-05-15T16:38:24.304Z,30.26
2023-05-15T16:40:51.767Z,30.02
2023-05-15T16:43:21.544Z,30.03
2023-05-15T16:45:48.924Z,30.18
2023-05-15T16:48:16.387Z,30.32
2023-05-15T16:50:44.026Z,30.58
2023-05-15T16:53:11.967Z,30.72
2023-05-15T16:55:39.734Z,31.09
2023-05-15T16:58:08.333Z,31.28
2023-05-15T17:00:35.952Z,31.34
2023-05-15T17:03:05.393Z,31.63
2023-05-15T17:05:33.584Z,32.17
2023-05-15T17:08:01.340Z,32.20
2023-05-15T17:10:28.953Z,32.40
2023-05-15T17:12:56.425Z,32.63
2023-05-15T17:15:24.638Z,32.75
2023-05-15T17:17:52.416Z,32.85
2023-05-15T17:20:20.007Z,32.93
2023-05-15T17:22:47.590Z,33.31
2023-05-15T17:25:15.312Z,33.23
2023-05-15T17:27:43.233Z,33.73
2023-05-15T17:30:11.571Z,34.28
2023-05-15T17:32:39.727Z,34.29
2023-05-15T17:35:08.197Z,34.09
2023-05-15T17:37:36.509Z,34.48
2023-05-15T17:40:05.537Z,35.14
2023-05-15T17:42:34.131Z,34.81
2023-05-15T17:45:02.252Z,35.14
2023-05-15T17:47:30.365Z,35.19
2023-05-15T17:49:57.874Z,35.49
2023-05-15T17:52:25.278Z,36.10
2023-05-15T17:54:52.793Z,36.13
2023-05-15T17:57:20.755Z,36.47
2023-05-15T17:59:48.343Z,36.61
2023-05-15T18:02:16.021Z,36.86
2023-05-15T18:04:44.034Z,37.14
2023-05-15T18:07:11.779Z,37.32
2023-05-15T18:09:39.433Z,37.84
2023-05-15T18:12:07.209Z,38.54
2023-05-15T18:14:35.852Z,39.74
2023-05-15T18:17:03.452Z,40.55
2023-05-15T18:19:31.036Z,41.32
2023-05-15T18:22:02.393Z,42.10
2023-05-15T18:24:30.313Z,42.60
2023-05-15T18:26:57.721Z,43.68
2023-05-15T18:29:25.817Z,45.09
2023-05-15T18:31:53.339Z,45.81
2023-05-15T18:34:20.951Z,46.53
2023-05-15T18:36:51.664Z,46.90
2023-05-15T18:39:19.180Z,46.75
2023-05-15T18:41:46.648Z,46.35
2023-05-15T18:44:14.055Z,47.12
2023-05-15T18:46:41.643Z,48.62
2023-05-15T18:49:09.244Z,49.06
2023-05-15T18:51:37.067Z,49.30
2023-05-15T18:54:04.502Z,49.87
2023-05-15T18:56:32.454Z,51.93
2023-05-15T18:58:59.978Z,51.68
2023-05-15T19:01:27.724Z,52.71
2023-05-15T19:03:55.280Z,53.50
2023-05-15T19:06:22.988Z,52.28
2023-05-15T19:08:51.115Z,51.58
2023-05-15T19:11:19.028Z,51.74
2023-05-15T19:13:46.604Z,51.47
2023-05-15T19:16:14.526Z,50.86
2023-05-15T19:18:44.202Z,51.82
2023-05-15T19:21:11.602Z,52.44
2023-05-15T19:23:39.098Z,51.71
2023-05-15T19:26:06.682Z,52.58
2023-05-15T19:28:34.396Z,52.58
2023-05-15T19:31:01.847Z,52.39
2023-05-15T19:33:29.782Z,52.79
2023-05-15T19:35:57.330Z,53.44
2023-05-15T19:38:25.097Z,53.44
2023-05-15T19:40:52.772Z,53.44
2023-05-15T19:43:20.143Z,53.10
2023-05-15T19:45:47.666Z,53.55
2023-05-15T19:48:15.108Z,54.29
2023-05-15T19:50:42.478Z,54.18
2023-05-15T19:53:11.734Z,54.62
2023-05-15T19:55:39.401Z,55.21
2023-05-15T19:58:06.773Z,55.13
2023-05-15T20:00:34.542Z,55.59
2023-05-15T20:03:02.178Z,55.72
2023-05-15T20:05:30.021Z,55.69
2023-05-15T20:07:57.601Z,56.17
2023-05-15T20:10:25.246Z,55.62
2023-05-15T20:12:53.175Z,55.98
2023-05-15T20:15:20.569Z,56.61
2023-05-15T20:17:48.021Z,57.34
2023-05-15T20:20:16.378Z,58.12
2023-05-15T20:22:44.176Z,59.05
2023-05-15T20:25:11.567Z,59.15
2023-05-15T20:27:39.144Z,60.56
2023-05-15T20:30:08.294Z,61.44
2023-05-15T20:32:36.647Z,61.44
2023-05-15T20:35:04.784Z,62.00
2023-05-15T20:37:32.979Z,61.41
2023-05-15T20:40:00.500Z,61.61
2023-05-15T20:42:28.766Z,62.37
2023-05-15T20:44:56.335Z,62.27
2023-05-15T20:47:23.901Z,61.81
2023-05-15T20:49:51.795Z,62.22
2023-05-15T20:52:20.467Z,63.75
2023-05-15T20:54:48.444Z,64.85
2023-05-15T20:57:15.893Z,64.64
2023-05-15T20:59:43.654Z,65.28
2023-05-15T21:02:11.062Z,65.56
2023-05-15T21:04:39.036Z,65.89
2023-05-15T21:07:06.844Z,65.16
2023-05-15T21:09:34.394Z,65.06
2023-05-15T21:12:03.484Z,65.29
2023-05-15T21:14:31.479Z,66.08
2023-05-15T21:16:59.085Z,65.96
2023-05-15T21:19:26.568Z,67.20
2023-05-15T21:21:54.092Z,67.12
2023-05-15T21:24:22.585Z,67.34
2023-05-15T21:26:50.186Z,67.33
2023-05-15T21:29:17.614Z,66.24
2023-05-15T21:31:45.222Z,65.86
2023-05-15T21:34:12.775Z,65.18
2023-05-15T21:36:40.430Z,64.90
2023-05-15T21:39:09.211Z,64.57
2023-05-15T21:41:36.883Z,64.85
2023-05-15T21:44:04.448Z,64.84
2023-05-15T21:46:32.086Z,64.18
2023-05-15T21:49:00.764Z,64.00
2023-05-15T21:51:28.600Z,63.76
2023-05-15T21:53:56.641Z,63.08
2023-05-15T21:56:24.213Z,62.16
2023-05-15T21:58:54.853Z,62.22
2023-05-15T22:01:22.371Z,61.38
2023-05-15T22:03:50.477Z,61.43
2023-05-15T22:06:18.299Z,61.03
2023-05-15T22:08:45.822Z,60.75
2023-05-15T22:11:13.728Z,60.61
2023-05-15T22:13:41.276Z,60.57
2023-05-15T22:16:09.204Z,60.42
2023-05-15T22:18:37.481Z,60.22
2023-05-15T22:21:05.414Z,60.57
2023-05-15T22:23:32.938Z,60.99
2023-05-15T22:26:00.821Z,60.95
2023-05-15T22:28:29.356Z,60.85
2023-05-15T22:30:56.882Z,60.84
2023-05-15T22:33:24.692Z,60.31
2023-05-15T22:35:52.932Z,60.54
2023-05-15T22:38:20.646Z,60.50
2023-05-15T22:40:50.650Z,60.55
2023-05-15T22:43:18.270Z,60.91
2023-05-15T22:45:45.794Z,61.73
2023-05-15T22:48:15.059Z,61.40
2023-05-15T22:50:43.708Z,61.35
2023-05-15T22:53:11.433Z,61.39
2023-05-15T22:55:39.018Z,61.10
2023-05-15T22:58:06.522Z,61.09
2023-05-15T23:00:34.170Z,61.85
2023-05-15T23:03:01.872Z,61.67
2023-05-15T23:05:30.988Z,61.70
2023-05-15T23:07:58.992Z,61.79
2023-05-15T23:10:26.878Z,61.70
2023-05-15T23:12:54.690Z,61.97
2023-05-15T23:15:22.413Z,61.84
2023-05-15T23:17:50.281Z,62.19
2023-05-15T23:20:18.234Z,62.24
2023-05-15T23:22:45.734Z,62.75
2023-05-15T23:25:13.519Z,62.95
2023-05-15T23:27:41.174Z,64.11
2023-05-15T23:30:09.683Z,63.93
2023-05-15T23:32:37.759Z,64.54
2023-05-15T23:35:06.040Z,65.03
2023-05-15T23:37:33.698Z,66.06
2023-05-15T23:40:01.726Z,66.58
2023-05-15T23:42:30.354Z,66.60
2023-05-15T23:44:57.794Z,67.82
2023-05-15T23:47:25.566Z,67.70
2023-05-15T23:49:53.132Z,68.64
2023-05-15T23:52:20.577Z,68.22
2023-05-15T23:54:48.781Z,68.90
2023-05-15T23:57:16.798Z,70.05
2023-05-15T23:59:44.367Z,69.77
